sensor_id;sensor_type;location;lat;lon;timestamp;P1;durP1;ratioP1;P2;durP2;ratioP2
68072;SDS011;54862;51.502;7.446;2022-09-13T00:01:47;6.95;;;3.05;;
68072;SDS011;54862;51.502;7.446;2022-09-13T00:04:13;7.50;;;3.28;;
68072;SDS011;54862;51.502;7.446;2022-09-13T00:06:39;7.22;;;3.35;;
68072;SDS011;54862;51.502;7.446;2022-09-13T00:09:05;7.22;;;3.50;;
68072;SDS011;54862;51.502;7.446;2022-09-13T00:11:31;8.65;;;3.70;;
68072;SDS011;54862;51.502;7.446;2022-09-13T00:13:57;6.88;;;3.50;;
68072;SDS011;54862;51.502;7.446;2022-09-13T00:16:25;8.50;;;3.17;;
68072;SDS011;54862;51.502;7.446;2022-09-13T00:18:51;6.95;;;3.53;;
68072;SDS011;54862;51.502;7.446;2022-09-13T00:21:18;8.10;;;3.22;;
68072;SDS011;54862;51.502;7.446;2022-09-13T00:23:45;8.07;;;3.90;;
68072;SDS011;54862;51.502;7.446;2022-09-13T00:26:15;6.45;;;3.30;;
68072;SDS011;54862;51.502;7.446;2022-09-13T00:28:41;7.00;;;3.40;;
68072;SDS011;54862;51.502;7.446;2022-09-13T00:31:09;6.70;;;3.33;;
68072;SDS011;54862;51.502;7.446;2022-09-13T00:33:36;6.95;;;3.53;;
68072;SDS011;54862;51.502;7.446;2022-09-13T00:36:06;7.35;;;3.25;;
68072;SDS011;54862;51.502;7.446;2022-09-13T00:38:35;6.38;;;3.28;;
68072;SDS011;54862;51.502;7.446;2022-09-13T00:41:02;6.28;;;2.97;;
68072;SDS011;54862;51.502;7.446;2022-09-13T00:46:07;6.57;;;3.30;;
68072;SDS011;54862;51.502;7.446;2022-09-13T00:48:33;6.35;;;3.10;;
68072;SDS011;54862;51.502;7.446;2022-09-13T00:51:00;8.18;;;3.25;;
68072;SDS011;54862;51.502;7.446;2022-09-13T00:53:27;6.47;;;3.15;;
68072;SDS011;54862;51.502;7.446;2022-09-13T00:55:56;6.13;;;3.40;;
68072;SDS011;54862;51.502;7.446;2022-09-13T00:58:27;6.18;;;2.92;;
68072;SDS011;54862;51.502;7.446;2022-09-13T01:00:54;6.40;;;3.13;;
68072;SDS011;54862;51.502;7.446;2022-09-13T01:03:21;6.15;;;3.40;;
68072;SDS011;54862;51.502;7.446;2022-09-13T01:05:54;9.30;;;3.13;;
68072;SDS011;54862;51.502;7.446;2022-09-13T01:08:21;8.00;;;3.05;;
68072;SDS011;54862;51.502;7.446;2022-09-13T01:10:51;5.50;;;2.83;;
68072;SDS011;54862;51.502;7.446;2022-09-13T01:13:20;6.15;;;3.08;;
68072;SDS011;54862;51.502;7.446;2022-09-13T01:15:47;6.20;;;3.10;;
68072;SDS011;54862;51.502;7.446;2022-09-13T01:18:13;5.93;;;3.10;;
68072;SDS011;54862;51.502;7.446;2022-09-13T01:28:36;5.40;;;3.00;;
68072;SDS011;54862;51.502;7.446;2022-09-13T01:31:09;6.32;;;3.17;;
68072;SDS011;54862;51.502;7.446;2022-09-13T01:39:03;5.70;;;2.90;;
68072;SDS011;54862;51.502;7.446;2022-09-13T01:41:43;6.40;;;3.22;;
68072;SDS011;54862;51.502;7.446;2022-09-13T01:51:53;6.82;;;2.75;;
68072;SDS011;54862;51.502;7.446;2022-09-13T01:54:26;6.57;;;3.03;;
68072;SDS011;54862;51.502;7.446;2022-09-13T02:02:25;4.63;;;2.70;;
68072;SDS011;54862;51.502;7.446;2022-09-13T02:04:50;5.22;;;3.03;;
68072;SDS011;54862;51.502;7.446;2022-09-13T02:07:19;6.13;;;3.10;;
68072;SDS011;54862;51.502;7.446;2022-09-13T02:09:48;5.63;;;2.75;;
68072;SDS011;54862;51.502;7.446;2022-09-13T02:12:18;6.20;;;3.17;;
68072;SDS011;54862;51.502;7.446;2022-09-13T02:14:48;6.10;;;2.80;;
68072;SDS011;54862;51.502;7.446;2022-09-13T02:17:17;5.97;;;3.13;;
68072;SDS011;54862;51.502;7.446;2022-09-13T02:19:51;5.35;;;3.00;;
68072;SDS011;54862;51.502;7.446;2022-09-13T02:22:19;5.30;;;2.72;;
68072;SDS011;54862;51.502;7.446;2022-09-13T02:24:47;5.78;;;3.00;;
68072;SDS011;54862;51.502;7.446;2022-09-13T02:27:18;5.60;;;2.90;;
68072;SDS011;54862;51.502;7.446;2022-09-13T02:29:45;7.75;;;3.05;;
68072;SDS011;54862;51.502;7.446;2022-09-13T02:32:17;5.65;;;3.05;;
68072;SDS011;54862;51.502;7.446;2022-09-13T02:34:53;5.95;;;3.10;;
68072;SDS011;54862;51.502;7.446;2022-09-13T02:37:22;7.00;;;2.95;;
68072;SDS011;54862;51.502;7.446;2022-09-13T02:39:50;6.25;;;2.80;;
68072;SDS011;54862;51.502;7.446;2022-09-13T02:42:18;6.78;;;3.05;;
68072;SDS011;54862;51.502;7.446;2022-09-13T02:44:46;5.63;;;2.90;;
68072;SDS011;54862;51.502;7.446;2022-09-13T02:47:22;6.82;;;3.30;;
68072;SDS011;54862;51.502;7.446;2022-09-13T02:54:57;5.38;;;2.90;;
68072;SDS011;54862;51.502;7.446;2022-09-13T02:57:26;5.53;;;2.90;;
68072;SDS011;54862;51.502;7.446;2022-09-13T02:59:55;5.80;;;2.90;;
68072;SDS011;54862;51.502;7.446;2022-09-13T03:02:22;4.68;;;2.50;;
68072;SDS011;54862;51.502;7.446;2022-09-13T03:04:50;6.03;;;3.00;;
68072;SDS011;54862;51.502;7.446;2022-09-13T03:07:16;6.18;;;2.90;;
68072;SDS011;54862;51.502;7.446;2022-09-13T03:09:47;5.13;;;2.65;;
68072;SDS011;54862;51.502;7.446;2022-09-13T03:14:52;5.88;;;3.08;;
68072;SDS011;54862;51.502;7.446;2022-09-13T03:32:31;5.85;;;2.90;;
68072;SDS011;54862;51.502;7.446;2022-09-13T03:43:00;6.13;;;3.00;;
68072;SDS011;54862;51.502;7.446;2022-09-13T03:45:28;6.95;;;2.90;;
68072;SDS011;54862;51.502;7.446;2022-09-13T03:47:55;5.55;;;2.83;;
68072;SDS011;54862;51.502;7.446;2022-09-13T03:50:22;4.65;;;2.53;;
68072;SDS011;54862;51.502;7.446;2022-09-13T03:52:53;7.05;;;3.00;;
68072;SDS011;54862;51.502;7.446;2022-09-13T03:55:20;7.68;;;3.10;;
68072;SDS011;54862;51.502;7.446;2022-09-13T03:57:47;5.95;;;2.80;;
68072;SDS011;54862;51.502;7.446;2022-09-13T04:00:13;5.90;;;2.67;;
68072;SDS011;54862;51.502;7.446;2022-09-13T04:02:39;5.78;;;3.10;;
68072;SDS011;54862;51.502;7.446;2022-09-13T04:05:05;5.28;;;2.80;;
68072;SDS011;54862;51.502;7.446;2022-09-13T04:07:31;5.18;;;3.00;;
68072;SDS011;54862;51.502;7.446;2022-09-13T04:09:57;6.07;;;2.88;;
68072;SDS011;54862;51.502;7.446;2022-09-13T04:12:23;6.18;;;2.80;;
68072;SDS011;54862;51.502;7.446;2022-09-13T04:14:51;5.85;;;2.97;;
68072;SDS011;54862;51.502;7.446;2022-09-13T04:17:17;5.72;;;2.90;;
68072;SDS011;54862;51.502;7.446;2022-09-13T04:19:43;6.35;;;2.90;;
68072;SDS011;54862;51.502;7.446;2022-09-13T04:22:09;6.10;;;3.05;;
68072;SDS011;54862;51.502;7.446;2022-09-13T04:24:35;6.97;;;3.17;;
68072;SDS011;54862;51.502;7.446;2022-09-13T04:27:02;5.55;;;2.90;;
68072;SDS011;54862;51.502;7.446;2022-09-13T04:29:29;5.68;;;3.20;;
68072;SDS011;54862;51.502;7.446;2022-09-13T04:31:55;6.43;;;3.17;;
68072;SDS011;54862;51.502;7.446;2022-09-13T04:34:21;8.40;;;2.90;;
68072;SDS011;54862;51.502;7.446;2022-09-13T04:36:48;7.70;;;3.17;;
68072;SDS011;54862;51.502;7.446;2022-09-13T04:39:15;5.85;;;3.08;;
68072;SDS011;54862;51.502;7.446;2022-09-13T04:41:41;5.57;;;2.83;;
68072;SDS011;54862;51.502;7.446;2022-09-13T04:44:10;6.15;;;2.80;;
68072;SDS011;54862;51.502;7.446;2022-09-13T04:46:36;6.15;;;2.90;;
68072;SDS011;54862;51.502;7.446;2022-09-13T04:49:02;5.50;;;2.95;;
68072;SDS011;54862;51.502;7.446;2022-09-13T04:51:28;6.63;;;2.80;;
68072;SDS011;54862;51.502;7.446;2022-09-13T04:53:54;6.95;;;3.08;;
68072;SDS011;54862;51.502;7.446;2022-09-13T04:56:21;7.25;;;2.78;;
68072;SDS011;54862;51.502;7.446;2022-09-13T04:58:49;8.02;;;3.08;;
68072;SDS011;54862;51.502;7.446;2022-09-13T05:01:15;5.43;;;2.95;;
68072;SDS011;54862;51.502;7.446;2022-09-13T05:03:41;6.15;;;2.60;;
68072;SDS011;54862;51.502;7.446;2022-09-13T05:06:08;6.70;;;2.90;;
68072;SDS011;54862;51.502;7.446;2022-09-13T05:08:34;5.88;;;3.03;;
68072;SDS011;54862;51.502;7.446;2022-09-13T05:11:00;5.85;;;2.90;;
68072;SDS011;54862;51.502;7.446;2022-09-13T05:13:27;5.68;;;3.00;;
68072;SDS011;54862;51.502;7.446;2022-09-13T05:15:53;5.68;;;2.90;;
68072;SDS011;54862;51.502;7.446;2022-09-13T05:18:20;7.20;;;3.33;;
68072;SDS011;54862;51.502;7.446;2022-09-13T05:20:46;5.80;;;2.80;;
68072;SDS011;54862;51.502;7.446;2022-09-13T05:23:12;8.52;;;2.75;;
68072;SDS011;54862;51.502;7.446;2022-09-13T05:25:38;5.40;;;2.60;;
68072;SDS011;54862;51.502;7.446;2022-09-13T05:28:04;7.05;;;3.13;;
68072;SDS011;54862;51.502;7.446;2022-09-13T05:30:30;5.97;;;2.90;;
68072;SDS011;54862;51.502;7.446;2022-09-13T05:32:56;5.70;;;2.90;;
68072;SDS011;54862;51.502;7.446;2022-09-13T05:35:22;7.38;;;3.17;;
68072;SDS011;54862;51.502;7.446;2022-09-13T05:37:49;5.35;;;2.90;;
68072;SDS011;54862;51.502;7.446;2022-09-13T05:40:15;6.93;;;2.80;;
68072;SDS011;54862;51.502;7.446;2022-09-13T05:42:40;6.18;;;3.00;;
68072;SDS011;54862;51.502;7.446;2022-09-13T05:45:07;6.82;;;2.70;;
68072;SDS011;54862;51.502;7.446;2022-09-13T05:47:34;7.40;;;3.25;;
68072;SDS011;54862;51.502;7.446;2022-09-13T05:50:00;7.43;;;3.25;;
68072;SDS011;54862;51.502;7.446;2022-09-13T05:52:26;6.00;;;3.00;;
68072;SDS011;54862;51.502;7.446;2022-09-13T05:54:52;6.13;;;3.08;;
68072;SDS011;54862;51.502;7.446;2022-09-13T05:57:18;7.38;;;3.05;;
68072;SDS011;54862;51.502;7.446;2022-09-13T05:59:44;6.07;;;3.13;;
68072;SDS011;54862;51.502;7.446;2022-09-13T06:02:11;7.88;;;3.20;;
68072;SDS011;54862;51.502;7.446;2022-09-13T06:04:37;5.82;;;2.50;;
68072;SDS011;54862;51.502;7.446;2022-09-13T06:07:03;6.97;;;2.72;;
68072;SDS011;54862;51.502;7.446;2022-09-13T06:09:29;5.53;;;2.88;;
68072;SDS011;54862;51.502;7.446;2022-09-13T06:11:55;7.22;;;3.30;;
68072;SDS011;54862;51.502;7.446;2022-09-13T06:14:21;9.50;;;3.10;;
68072;SDS011;54862;51.502;7.446;2022-09-13T06:16:47;5.90;;;3.15;;
68072;SDS011;54862;51.502;7.446;2022-09-13T06:19:13;6.28;;;3.10;;
68072;SDS011;54862;51.502;7.446;2022-09-13T06:21:39;5.10;;;2.78;;
68072;SDS011;54862;51.502;7.446;2022-09-13T06:24:06;6.97;;;3.08;;
68072;SDS011;54862;51.502;7.446;2022-09-13T06:26:32;5.65;;;2.80;;
68072;SDS011;54862;51.502;7.446;2022-09-13T06:28:58;6.38;;;2.70;;
68072;SDS011;54862;51.502;7.446;2022-09-13T06:31:25;5.85;;;2.85;;
68072;SDS011;54862;51.502;7.446;2022-09-13T06:33:59;5.07;;;2.85;;
68072;SDS011;54862;51.502;7.446;2022-09-13T06:36:29;4.13;;;2.60;;
68072;SDS011;54862;51.502;7.446;2022-09-13T06:38:55;5.57;;;3.05;;
68072;SDS011;54862;51.502;7.446;2022-09-13T06:41:24;6.70;;;3.00;;
68072;SDS011;54862;51.502;7.446;2022-09-13T06:43:54;6.18;;;2.83;;
68072;SDS011;54862;51.502;7.446;2022-09-13T06:46:21;6.03;;;3.08;;
68072;SDS011;54862;51.502;7.446;2022-09-13T06:48:47;8.43;;;3.50;;
68072;SDS011;54862;51.502;7.446;2022-09-13T06:51:17;7.97;;;3.38;;
68072;SDS011;54862;51.502;7.446;2022-09-13T06:53:44;7.78;;;3.10;;
68072;SDS011;54862;51.502;7.446;2022-09-13T06:56:11;5.68;;;3.00;;
68072;SDS011;54862;51.502;7.446;2022-09-13T06:58:38;7.30;;;3.20;;
68072;SDS011;54862;51.502;7.446;2022-09-13T07:03:43;6.07;;;2.78;;
68072;SDS011;54862;51.502;7.446;2022-09-13T07:06:13;6.43;;;3.15;;
68072;SDS011;54862;51.502;7.446;2022-09-13T07:08:40;7.30;;;3.00;;
68072;SDS011;54862;51.502;7.446;2022-09-13T07:11:07;6.40;;;2.92;;
68072;SDS011;54862;51.502;7.446;2022-09-13T07:13:33;5.90;;;3.00;;
68072;SDS011;54862;51.502;7.446;2022-09-13T07:16:00;8.05;;;3.03;;
68072;SDS011;54862;51.502;7.446;2022-09-13T07:18:26;6.45;;;3.00;;
68072;SDS011;54862;51.502;7.446;2022-09-13T07:20:57;6.60;;;2.75;;
68072;SDS011;54862;51.502;7.446;2022-09-13T07:23:24;9.27;;;3.40;;
68072;SDS011;54862;51.502;7.446;2022-09-13T07:25:54;6.00;;;2.75;;
68072;SDS011;54862;51.502;7.446;2022-09-13T07:28:20;6.18;;;2.67;;
68072;SDS011;54862;51.502;7.446;2022-09-13T07:30:46;7.40;;;3.00;;
68072;SDS011;54862;51.502;7.446;2022-09-13T07:33:12;8.65;;;3.50;;
68072;SDS011;54862;51.502;7.446;2022-09-13T07:35:37;8.90;;;3.38;;
68072;SDS011;54862;51.502;7.446;2022-09-13T07:38:03;8.30;;;3.72;;
68072;SDS011;54862;51.502;7.446;2022-09-13T07:40:29;8.23;;;4.03;;
68072;SDS011;54862;51.502;7.446;2022-09-13T07:42:57;7.97;;;3.53;;
68072;SDS011;54862;51.502;7.446;2022-09-13T07:45:23;7.68;;;3.30;;
68072;SDS011;54862;51.502;7.446;2022-09-13T07:47:49;6.13;;;3.10;;
68072;SDS011;54862;51.502;7.446;2022-09-13T07:50:17;9.30;;;3.40;;
68072;SDS011;54862;51.502;7.446;2022-09-13T07:52:43;6.45;;;3.25;;
68072;SDS011;54862;51.502;7.446;2022-09-13T07:55:09;7.38;;;3.22;;
68072;SDS011;54862;51.502;7.446;2022-09-13T07:57:35;7.13;;;3.40;;
68072;SDS011;54862;51.502;7.446;2022-09-13T08:00:01;7.63;;;3.20;;
68072;SDS011;54862;51.502;7.446;2022-09-13T08:02:28;6.47;;;3.08;;
68072;SDS011;54862;51.502;7.446;2022-09-13T08:04:54;5.53;;;2.72;;
68072;SDS011;54862;51.502;7.446;2022-09-13T08:07:20;6.80;;;3.20;;
68072;SDS011;54862;51.502;7.446;2022-09-13T08:09:46;8.93;;;3.28;;
68072;SDS011;54862;51.502;7.446;2022-09-13T08:12:12;8.82;;;3.03;;
68072;SDS011;54862;51.502;7.446;2022-09-13T08:14:38;6.32;;;2.90;;
68072;SDS011;54862;51.502;7.446;2022-09-13T08:17:04;10.13;;;3.30;;
68072;SDS011;54862;51.502;7.446;2022-09-13T08:19:30;6.03;;;3.00;;
68072;SDS011;54862;51.502;7.446;2022-09-13T08:21:56;7.45;;;3.10;;
68072;SDS011;54862;51.502;7.446;2022-09-13T08:24:22;9.45;;;3.17;;
68072;SDS011;54862;51.502;7.446;2022-09-13T08:26:49;7.05;;;3.05;;
68072;SDS011;54862;51.502;7.446;2022-09-13T08:29:16;7.80;;;2.85;;
68072;SDS011;54862;51.502;7.446;2022-09-13T08:31:42;8.85;;;2.83;;
68072;SDS011;54862;51.502;7.446;2022-09-13T08:34:09;8.68;;;3.08;;
68072;SDS011;54862;51.502;7.446;2022-09-13T08:36:35;8.68;;;3.05;;
68072;SDS011;54862;51.502;7.446;2022-09-13T08:39:01;8.30;;;3.70;;
68072;SDS011;54862;51.502;7.446;2022-09-13T08:44:12;8.77;;;3.33;;
68072;SDS011;54862;51.502;7.446;2022-09-13T08:46:44;8.40;;;3.00;;
68072;SDS011;54862;51.502;7.446;2022-09-13T08:49:16;6.80;;;3.60;;
68072;SDS011;54862;51.502;7.446;2022-09-13T08:54:11;6.55;;;3.28;;
68072;SDS011;54862;51.502;7.446;2022-09-13T08:56:43;9.73;;;3.60;;
68072;SDS011;54862;51.502;7.446;2022-09-13T09:06:52;9.80;;;3.63;;
68072;SDS011;54862;51.502;7.446;2022-09-13T09:09:20;7.90;;;3.60;;
68072;SDS011;54862;51.502;7.446;2022-09-13T09:11:51;7.50;;;3.50;;
68072;SDS011;54862;51.502;7.446;2022-09-13T09:16:46;10.07;;;3.42;;
68072;SDS011;54862;51.502;7.446;2022-09-13T09:19:15;8.02;;;3.35;;
68072;SDS011;54862;51.502;7.446;2022-09-13T09:21:43;8.45;;;3.95;;
68072;SDS011;54862;51.502;7.446;2022-09-13T09:24:15;8.52;;;3.45;;
68072;SDS011;54862;51.502;7.446;2022-09-13T09:26:43;7.93;;;3.35;;
68072;SDS011;54862;51.502;7.446;2022-09-13T09:29:13;8.40;;;3.67;;
68072;SDS011;54862;51.502;7.446;2022-09-13T09:34:39;9.93;;;4.27;;
68072;SDS011;54862;51.502;7.446;2022-09-13T09:37:23;11.98;;;4.15;;
68072;SDS011;54862;51.502;7.446;2022-09-13T09:39:51;9.27;;;4.47;;
68072;SDS011;54862;51.502;7.446;2022-09-13T09:42:24;10.30;;;4.00;;
68072;SDS011;54862;51.502;7.446;2022-09-13T09:44:52;9.63;;;3.85;;
68072;SDS011;54862;51.502;7.446;2022-09-13T09:47:19;12.13;;;4.30;;
68072;SDS011;54862;51.502;7.446;2022-09-13T09:52:51;9.65;;;3.63;;
68072;SDS011;54862;51.502;7.446;2022-09-13T09:55:24;7.85;;;3.63;;
68072;SDS011;54862;51.502;7.446;2022-09-13T10:00:25;8.55;;;4.50;;
68072;SDS011;54862;51.502;7.446;2022-09-13T10:02:54;8.50;;;4.13;;
68072;SDS011;54862;51.502;7.446;2022-09-13T10:05:21;11.02;;;4.30;;
68072;SDS011;54862;51.502;7.446;2022-09-13T10:07:52;10.40;;;4.80;;
68072;SDS011;54862;51.502;7.446;2022-09-13T10:10:41;9.98;;;4.13;;
68072;SDS011;54862;51.502;7.446;2022-09-13T10:13:18;9.60;;;4.63;;
68072;SDS011;54862;51.502;7.446;2022-09-13T10:18:37;11.25;;;4.70;;
68072;SDS011;54862;51.502;7.446;2022-09-13T10:21:05;9.80;;;4.80;;
68072;SDS011;54862;51.502;7.446;2022-09-13T10:23:31;10.35;;;5.05;;
68072;SDS011;54862;51.502;7.446;2022-09-13T10:26:05;11.52;;;4.78;;
68072;SDS011;54862;51.502;7.446;2022-09-13T10:28:34;9.88;;;4.80;;
68072;SDS011;54862;51.502;7.446;2022-09-13T10:33:33;10.05;;;4.35;;
68072;SDS011;54862;51.502;7.446;2022-09-13T10:36:00;9.98;;;4.50;;
68072;SDS011;54862;51.502;7.446;2022-09-13T10:38:29;9.55;;;4.45;;
68072;SDS011;54862;51.502;7.446;2022-09-13T10:40:56;9.57;;;4.50;;
68072;SDS011;54862;51.502;7.446;2022-09-13T10:43:22;11.25;;;4.18;;
68072;SDS011;54862;51.502;7.446;2022-09-13T10:45:49;9.32;;;4.13;;
68072;SDS011;54862;51.502;7.446;2022-09-13T10:48:16;10.13;;;4.32;;
68072;SDS011;54862;51.502;7.446;2022-09-13T10:51:02;8.98;;;4.00;;
68072;SDS011;54862;51.502;7.446;2022-09-13T10:53:39;8.48;;;4.25;;
68072;SDS011;54862;51.502;7.446;2022-09-13T10:56:07;8.55;;;3.90;;
68072;SDS011;54862;51.502;7.446;2022-09-13T10:58:43;11.20;;;4.22;;
68072;SDS011;54862;51.502;7.446;2022-09-13T11:01:12;8.57;;;3.42;;
68072;SDS011;54862;51.502;7.446;2022-09-13T11:06:41;7.85;;;3.83;;
68072;SDS011;54862;51.502;7.446;2022-09-13T11:09:33;9.30;;;3.90;;
68072;SDS011;54862;51.502;7.446;2022-09-13T11:25:16;8.82;;;3.88;;
68072;SDS011;54862;51.502;7.446;2022-09-13T11:30:17;11.60;;;3.72;;
68072;SDS011;54862;51.502;7.446;2022-09-13T11:40:46;8.77;;;4.22;;
68072;SDS011;54862;51.502;7.446;2022-09-13T11:45:49;13.57;;;4.60;;
68072;SDS011;54862;51.502;7.446;2022-09-13T11:56:32;11.98;;;4.05;;
68072;SDS011;54862;51.502;7.446;2022-09-13T11:59:07;9.70;;;4.07;;
68072;SDS011;54862;51.502;7.446;2022-09-13T12:01:37;9.55;;;3.80;;
68072;SDS011;54862;51.502;7.446;2022-09-13T12:04:08;10.65;;;4.13;;
68072;SDS011;54862;51.502;7.446;2022-09-13T12:06:42;11.25;;;4.50;;
68072;SDS011;54862;51.502;7.446;2022-09-13T12:09:15;11.25;;;4.30;;
68072;SDS011;54862;51.502;7.446;2022-09-13T12:11:44;10.60;;;4.13;;
68072;SDS011;54862;51.502;7.446;2022-09-13T12:14:13;9.25;;;4.35;;
68072;SDS011;54862;51.502;7.446;2022-09-13T12:16:41;10.75;;;5.00;;
68072;SDS011;54862;51.502;7.446;2022-09-13T12:21:38;9.55;;;4.18;;
68072;SDS011;54862;51.502;7.446;2022-09-13T12:24:19;8.15;;;4.15;;
68072;SDS011;54862;51.502;7.446;2022-09-13T12:29:39;12.88;;;5.07;;
68072;SDS011;54862;51.502;7.446;2022-09-13T12:32:08;13.52;;;6.05;;
68072;SDS011;54862;51.502;7.446;2022-09-13T12:34:39;9.32;;;5.40;;
68072;SDS011;54862;51.502;7.446;2022-09-13T12:37:09;10.77;;;5.32;;
68072;SDS011;54862;51.502;7.446;2022-09-13T13:00:26;12.45;;;5.93;;
68072;SDS011;54862;51.502;7.446;2022-09-13T13:03:11;13.98;;;6.00;;
68072;SDS011;54862;51.502;7.446;2022-09-13T13:10:43;12.45;;;6.10;;
68072;SDS011;54862;51.502;7.446;2022-09-13T13:13:14;12.45;;;7.07;;
68072;SDS011;54862;51.502;7.446;2022-09-13T13:31:04;11.05;;;6.03;;
68072;SDS011;54862;51.502;7.446;2022-09-13T13:33:41;9.57;;;6.00;;
68072;SDS011;54862;51.502;7.446;2022-09-13T13:36:19;15.43;;;6.30;;
68072;SDS011;54862;51.502;7.446;2022-09-13T13:38:46;14.65;;;6.75;;
68072;SDS011;54862;51.502;7.446;2022-09-13T13:43:58;12.88;;;5.70;;
68072;SDS011;54862;51.502;7.446;2022-09-13T13:46:30;13.38;;;5.97;;
68072;SDS011;54862;51.502;7.446;2022-09-13T13:51:42;11.18;;;5.47;;
68072;SDS011;54862;51.502;7.446;2022-09-13T13:56:52;13.25;;;5.28;;
68072;SDS011;54862;51.502;7.446;2022-09-13T13:59:26;12.63;;;5.75;;
68072;SDS011;54862;51.502;7.446;2022-09-13T14:01:54;12.10;;;6.00;;
68072;SDS011;54862;51.502;7.446;2022-09-13T14:09:42;11.82;;;6.35;;
68072;SDS011;54862;51.502;7.446;2022-09-13T14:19:41;10.82;;;6.32;;
68072;SDS011;54862;51.502;7.446;2022-09-13T14:24:44;15.80;;;7.20;;
68072;SDS011;54862;51.502;7.446;2022-09-13T14:27:14;10.95;;;7.50;;
68072;SDS011;54862;51.502;7.446;2022-09-13T14:29:43;12.93;;;8.10;;
68072;SDS011;54862;51.502;7.446;2022-09-13T14:32:10;14.10;;;8.40;;
68072;SDS011;54862;51.502;7.446;2022-09-13T14:34:38;16.15;;;8.45;;
68072;SDS011;54862;51.502;7.446;2022-09-13T14:37:05;12.38;;;7.32;;
68072;SDS011;54862;51.502;7.446;2022-09-13T14:39:52;11.45;;;7.00;;
68072;SDS011;54862;51.502;7.446;2022-09-13T14:42:18;12.57;;;6.72;;
68072;SDS011;54862;51.502;7.446;2022-09-13T14:44:44;16.02;;;7.95;;
68072;SDS011;54862;51.502;7.446;2022-09-13T14:49:41;12.05;;;6.35;;
68072;SDS011;54862;51.502;7.446;2022-09-13T14:52:09;11.88;;;6.57;;
68072;SDS011;54862;51.502;7.446;2022-09-13T14:54:43;9.37;;;5.63;;
68072;SDS011;54862;51.502;7.446;2022-09-13T14:57:24;11.45;;;8.00;;
68072;SDS011;54862;51.502;7.446;2022-09-13T14:59:54;13.93;;;7.40;;
68072;SDS011;54862;51.502;7.446;2022-09-13T15:02:25;12.07;;;7.28;;
68072;SDS011;54862;51.502;7.446;2022-09-13T15:04:53;11.13;;;6.40;;
68072;SDS011;54862;51.502;7.446;2022-09-13T15:09:48;11.02;;;6.38;;
68072;SDS011;54862;51.502;7.446;2022-09-13T15:12:23;13.88;;;6.93;;
68072;SDS011;54862;51.502;7.446;2022-09-13T15:15:12;9.77;;;5.45;;
68072;SDS011;54862;51.502;7.446;2022-09-13T15:17:51;10.77;;;6.28;;
68072;SDS011;54862;51.502;7.446;2022-09-13T15:20:18;13.27;;;6.93;;
68072;SDS011;54862;51.502;7.446;2022-09-13T15:22:46;14.93;;;6.75;;
68072;SDS011;54862;51.502;7.446;2022-09-13T15:25:27;11.93;;;6.72;;
68072;SDS011;54862;51.502;7.446;2022-09-13T15:27:55;12.48;;;7.45;;
68072;SDS011;54862;51.502;7.446;2022-09-13T15:32:48;9.68;;;6.43;;
68072;SDS011;54862;51.502;7.446;2022-09-13T15:35:22;10.57;;;5.97;;
68072;SDS011;54862;51.502;7.446;2022-09-13T15:37:57;10.85;;;7.05;;
68072;SDS011;54862;51.502;7.446;2022-09-13T15:40:23;12.13;;;6.70;;
68072;SDS011;54862;51.502;7.446;2022-09-13T15:42:50;10.77;;;6.38;;
68072;SDS011;54862;51.502;7.446;2022-09-13T15:45:17;14.73;;;9.02;;
68072;SDS011;54862;51.502;7.446;2022-09-13T15:47:44;12.85;;;7.50;;
68072;SDS011;54862;51.502;7.446;2022-09-13T15:50:21;15.18;;;8.68;;
68072;SDS011;54862;51.502;7.446;2022-09-13T15:52:47;12.13;;;7.10;;
68072;SDS011;54862;51.502;7.446;2022-09-13T15:55:13;11.75;;;7.25;;
68072;SDS011;54862;51.502;7.446;2022-09-13T15:57:39;13.15;;;6.32;;
68072;SDS011;54862;51.502;7.446;2022-09-13T16:00:12;10.70;;;6.75;;
68072;SDS011;54862;51.502;7.446;2022-09-13T16:02:39;13.20;;;7.45;;
68072;SDS011;54862;51.502;7.446;2022-09-13T16:05:05;10.50;;;6.47;;
68072;SDS011;54862;51.502;7.446;2022-09-13T16:07:32;11.80;;;6.93;;
68072;SDS011;54862;51.502;7.446;2022-09-13T16:09:58;14.13;;;7.60;;
68072;SDS011;54862;51.502;7.446;2022-09-13T16:12:25;12.85;;;7.15;;
68072;SDS011;54862;51.502;7.446;2022-09-13T16:14:51;15.13;;;7.57;;
68072;SDS011;54862;51.502;7.446;2022-09-13T16:17:23;13.57;;;7.05;;
68072;SDS011;54862;51.502;7.446;2022-09-13T16:19:49;12.43;;;6.72;;
68072;SDS011;54862;51.502;7.446;2022-09-13T16:22:15;10.40;;;5.95;;
68072;SDS011;54862;51.502;7.446;2022-09-13T16:24:41;12.07;;;6.10;;
68072;SDS011;54862;51.502;7.446;2022-09-13T16:27:08;14.07;;;6.55;;
68072;SDS011;54862;51.502;7.446;2022-09-13T16:29:35;14.77;;;7.43;;
68072;SDS011;54862;51.502;7.446;2022-09-13T16:32:01;12.48;;;6.72;;
68072;SDS011;54862;51.502;7.446;2022-09-13T16:34:27;12.77;;;6.72;;
68072;SDS011;54862;51.502;7.446;2022-09-13T16:36:53;12.23;;;6.78;;
68072;SDS011;54862;51.502;7.446;2022-09-13T16:39:19;12.00;;;7.30;;
68072;SDS011;54862;51.502;7.446;2022-09-13T16:41:45;11.18;;;6.50;;
68072;SDS011;54862;51.502;7.446;2022-09-13T16:44:11;12.50;;;6.03;;
68072;SDS011;54862;51.502;7.446;2022-09-13T16:46:38;12.07;;;6.68;;
68072;SDS011;54862;51.502;7.446;2022-09-13T16:49:04;12.68;;;6.25;;
68072;SDS011;54862;51.502;7.446;2022-09-13T16:51:30;13.02;;;6.88;;
68072;SDS011;54862;51.502;7.446;2022-09-13T16:53:56;11.18;;;6.57;;
68072;SDS011;54862;51.502;7.446;2022-09-13T16:56:23;12.68;;;7.88;;
68072;SDS011;54862;51.502;7.446;2022-09-13T16:58:49;11.63;;;6.43;;
68072;SDS011;54862;51.502;7.446;2022-09-13T17:01:17;11.38;;;6.72;;
68072;SDS011;54862;51.502;7.446;2022-09-13T17:03:43;12.68;;;6.60;;
68072;SDS011;54862;51.502;7.446;2022-09-13T17:06:10;11.23;;;6.50;;
68072;SDS011;54862;51.502;7.446;2022-09-13T17:08:37;13.68;;;7.05;;
68072;SDS011;54862;51.502;7.446;2022-09-13T17:11:06;12.45;;;6.40;;
68072;SDS011;54862;51.502;7.446;2022-09-13T17:13:33;10.48;;;5.90;;
68072;SDS011;54862;51.502;7.446;2022-09-13T17:15:59;13.05;;;6.70;;
68072;SDS011;54862;51.502;7.446;2022-09-13T17:18:25;13.05;;;6.20;;
68072;SDS011;54862;51.502;7.446;2022-09-13T17:20:51;12.13;;;6.35;;
68072;SDS011;54862;51.502;7.446;2022-09-13T17:23:17;11.23;;;5.50;;
68072;SDS011;54862;51.502;7.446;2022-09-13T17:25:44;12.15;;;5.95;;
68072;SDS011;54862;51.502;7.446;2022-09-13T17:28:11;11.48;;;5.97;;
68072;SDS011;54862;51.502;7.446;2022-09-13T17:30:38;11.60;;;5.75;;
68072;SDS011;54862;51.502;7.446;2022-09-13T17:33:05;9.60;;;5.03;;
68072;SDS011;54862;51.502;7.446;2022-09-13T17:35:31;9.60;;;5.20;;
68072;SDS011;54862;51.502;7.446;2022-09-13T17:37:57;10.50;;;6.00;;
68072;SDS011;54862;51.502;7.446;2022-09-13T17:40:24;10.27;;;4.75;;
68072;SDS011;54862;51.502;7.446;2022-09-13T17:42:50;9.65;;;5.40;;
68072;SDS011;54862;51.502;7.446;2022-09-13T17:45:16;9.75;;;4.80;;
68072;SDS011;54862;51.502;7.446;2022-09-13T17:47:42;10.02;;;6.15;;
68072;SDS011;54862;51.502;7.446;2022-09-13T17:50:09;10.35;;;6.13;;
68072;SDS011;54862;51.502;7.446;2022-09-13T17:52:35;12.38;;;7.00;;
68072;SDS011;54862;51.502;7.446;2022-09-13T17:55:01;11.20;;;6.82;;
68072;SDS011;54862;51.502;7.446;2022-09-13T17:57:27;10.70;;;6.88;;
68072;SDS011;54862;51.502;7.446;2022-09-13T17:59:53;13.50;;;6.25;;
68072;SDS011;54862;51.502;7.446;2022-09-13T18:02:19;10.80;;;5.80;;
68072;SDS011;54862;51.502;7.446;2022-09-13T18:04:46;12.90;;;6.57;;
68072;SDS011;54862;51.502;7.446;2022-09-13T18:07:12;12.02;;;6.43;;
68072;SDS011;54862;51.502;7.446;2022-09-13T18:09:38;10.30;;;6.50;;
68072;SDS011;54862;51.502;7.446;2022-09-13T18:12:05;11.65;;;6.65;;
68072;SDS011;54862;51.502;7.446;2022-09-13T18:14:31;12.80;;;6.05;;
68072;SDS011;54862;51.502;7.446;2022-09-13T18:16:57;11.27;;;7.28;;